createdAt,value
2022-12-17T00:02:35.363Z,101604.00
2022-12-17T00:05:21.405Z,101609.00
2022-12-17T00:08:06.884Z,101608.00
2022-12-17T00:10:52.081Z,101604.00
2022-12-17T00:13:40.130Z,101614.00
2022-12-17T00:16:27.642Z,101625.00
2022-12-17T00:19:13.094Z,101626.00
2022-12-17T00:21:58.199Z,101626.00
2022-12-17T00:24:43.961Z,101631.00
2022-12-17T00:27:29.486Z,101633.00
2022-12-17T00:30:14.923Z,101639.00
2022-12-17T00:33:00.216Z,101644.00
2022-12-17T00:35:45.768Z,101638.00
2022-12-17T00:38:38.453Z,101651.00
2022-12-17T00:41:23.839Z,101639.00
2022-12-17T00:44:09.367Z,101639.00
2022-12-17T00:46:55.179Z,101642.00
2022-12-17T00:49:41.069Z,101651.00
2022-12-17T00:52:26.537Z,101653.00
2022-12-17T00:55:11.877Z,101655.00
2022-12-17T00:57:57.232Z,101658.00
2022-12-17T01:00:42.733Z,101659.00
2022-12-17T01:03:31.256Z,101662.00
2022-12-17T01:06:21.668Z,101661.00
2022-12-17T01:09:07.123Z,101667.00
2022-12-17T01:11:52.522Z,101671.00
2022-12-17T01:14:43.025Z,101684.00
2022-12-17T01:17:30.064Z,101692.00
2022-12-17T01:20:16.147Z,101685.00
2022-12-17T01:23:01.764Z,101672.00
2022-12-17T01:25:47.777Z,101688.00
2022-12-17T01:28:41.300Z,101689.00
2022-12-17T01:31:32.954Z,101687.00
2022-12-17T01:34:20.200Z,101695.00
2022-12-17T01:37:10.033Z,101683.00
2022-12-17T01:39:55.571Z,101688.00
2022-12-17T01:42:41.008Z,101687.00
2022-12-17T01:45:32.487Z,101692.00
2022-12-17T01:48:27.012Z,101695.00
2022-12-17T01:51:15.150Z,101703.00
2022-12-17T01:54:07.793Z,101703.00
2022-12-17T01:56:56.307Z,101696.00
2022-12-17T01:59:57.489Z,101702.00
2022-12-17T02:02:43.036Z,101702.00
2022-12-17T02:05:28.304Z,101708.00
2022-12-17T02:08:59.007Z,101704.00
2022-12-17T02:12:05.421Z,101712.00
2022-12-17T02:15:19.473Z,101707.00
2022-12-17T02:18:16.502Z,101708.00
2022-12-17T02:21:12.274Z,101715.00
2022-12-17T02:24:41.197Z,101717.00
2022-12-17T02:27:28.802Z,101699.00
2022-12-17T02:30:21.995Z,101703.00
2022-12-17T02:33:09.926Z,101700.00
2022-12-17T02:36:05.112Z,101705.00
2022-12-17T02:38:52.233Z,101705.00
2022-12-17T02:41:48.372Z,101712.00
2022-12-17T02:44:37.362Z,101711.00
2022-12-17T02:47:27.822Z,101720.00
2022-12-17T02:50:13.370Z,101728.00
2022-12-17T02:53:04.724Z,101724.00
2022-12-17T02:55:51.195Z,101720.00
2022-12-17T02:58:36.349Z,101726.00
2022-12-17T03:01:22.248Z,101729.00
2022-12-17T03:04:09.534Z,101728.00
2022-12-17T03:06:54.923Z,101732.00
2022-12-17T03:09:40.285Z,101742.00
2022-12-17T03:12:25.779Z,101738.00
2022-12-17T03:15:11.198Z,101745.00
2022-12-17T03:17:56.543Z,101742.00
2022-12-17T03:20:42.010Z,101741.00
2022-12-17T03:23:30.713Z,101741.00
2022-12-17T03:26:20.693Z,101753.00
2022-12-17T03:29:06.596Z,101760.00
2022-12-17T03:31:52.213Z,101754.00
2022-12-17T03:34:37.697Z,101751.00
2022-12-17T03:37:23.147Z,101752.00
2022-12-17T03:40:08.672Z,101759.00
2022-12-17T03:42:54.084Z,101756.00
2022-12-17T03:45:39.435Z,101765.00
2022-12-17T03:48:29.033Z,101770.00
2022-12-17T03:51:15.661Z,101779.00
2022-12-17T03:54:01.567Z,101768.00
2022-12-17T03:56:47.674Z,101781.00
2022-12-17T03:59:33.078Z,101770.00
2022-12-17T04:02:19.133Z,101777.00
2022-12-17T04:05:04.790Z,101766.00
2022-12-17T04:07:49.919Z,101783.00
2022-12-17T04:10:48.983Z,101790.00
2022-12-17T04:13:38.928Z,101795.00
2022-12-17T04:16:26.931Z,101791.00
2022-12-17T04:19:12.459Z,101801.00
2022-12-17T04:21:58.805Z,101805.00
2022-12-17T04:24:45.185Z,101799.00
2022-12-17T04:27:30.670Z,101807.00
2022-12-17T04:30:16.166Z,101814.00
2022-12-17T04:33:01.568Z,101814.00
2022-12-17T04:35:46.921Z,101809.00
2022-12-17T04:38:32.366Z,101816.00
2022-12-17T04:41:17.880Z,101819.00
2022-12-17T04:44:03.734Z,101812.00
2022-12-17T04:46:50.420Z,101824.00
2022-12-17T04:49:35.526Z,101823.00
2022-12-17T04:52:20.931Z,101829.00
2022-12-17T04:55:06.375Z,101823.00
2022-12-17T04:57:52.051Z,101819.00
2022-12-17T05:00:38.164Z,101810.00
2022-12-17T05:03:31.955Z,101817.00
2022-12-17T05:06:17.641Z,101824.00
2022-12-17T05:09:03.070Z,101827.00
2022-12-17T05:11:48.540Z,101836.00
2022-12-17T05:14:33.912Z,101834.00
2022-12-17T05:17:19.339Z,101843.00
2022-12-17T05:20:04.758Z,101848.00
2022-12-17T05:22:50.283Z,101847.00
2022-12-17T05:25:36.938Z,101848.00
2022-12-17T05:28:22.240Z,101863.00
2022-12-17T05:31:14.677Z,101844.00
2022-12-17T05:34:00.489Z,101853.00
2022-12-17T05:36:45.917Z,101847.00
2022-12-17T05:39:31.357Z,101855.00
2022-12-17T05:42:16.814Z,101869.00
2022-12-17T05:45:02.174Z,101864.00
2022-12-17T05:47:47.640Z,101861.00
2022-12-17T05:50:33.121Z,101869.00
2022-12-17T05:53:23.586Z,101881.00
2022-12-17T05:56:12.605Z,101891.00
2022-12-17T05:58:58.000Z,101890.00
2022-12-17T06:01:43.459Z,101902.00
2022-12-17T06:04:29.618Z,101898.00
2022-12-17T06:07:15.148Z,101912.00
2022-12-17T06:10:00.665Z,101909.00
2022-12-17T06:12:46.062Z,101905.00
2022-12-17T06:15:31.410Z,101917.00
2022-12-17T06:18:17.513Z,101898.00
2022-12-17T06:21:03.893Z,101913.00
2022-12-17T06:24:00.610Z,101907.00
2022-12-17T06:26:47.218Z,101914.00
2022-12-17T06:29:32.594Z,101922.00
2022-12-17T06:32:18.088Z,101920.00
2022-12-17T06:35:03.351Z,101922.00
2022-12-17T06:37:48.483Z,101934.00
2022-12-17T06:40:33.997Z,101936.00
2022-12-17T06:43:19.306Z,101935.00
2022-12-17T06:46:04.772Z,101927.00
2022-12-17T06:48:50.132Z,101939.00
2022-12-17T06:51:35.405Z,101947.00
2022-12-17T06:54:21.040Z,101954.00
2022-12-17T06:57:06.438Z,101953.00
2022-12-17T06:59:52.317Z,101957.00
2022-12-17T07:02:37.616Z,101970.00
2022-12-17T07:05:25.961Z,101978.00
2022-12-17T07:08:20.162Z,101989.00
2022-12-17T07:11:05.609Z,101994.00
2022-12-17T07:13:50.829Z,101988.00
2022-12-17T07:16:36.350Z,101993.00
2022-12-17T07:19:26.983Z,102004.00
2022-12-17T07:22:12.670Z,102007.00
2022-12-17T07:24:58.028Z,102009.00
2022-12-17T07:27:44.475Z,102011.00
2022-12-17T07:30:31.023Z,102013.00
2022-12-17T07:33:22.103Z,102018.00
2022-12-17T07:36:07.533Z,102013.00
2022-12-17T07:38:52.991Z,102015.00
2022-12-17T07:41:38.499Z,102016.00
2022-12-17T07:44:23.825Z,102011.00
2022-12-17T07:47:09.286Z,102025.00
2022-12-17T07:49:54.823Z,102022.00
2022-12-17T07:52:40.539Z,102029.00
2022-12-17T07:55:25.961Z,102036.00
2022-12-17T07:58:21.695Z,102054.00
2022-12-17T08:01:07.210Z,102065.00
2022-12-17T08:03:52.941Z,102057.00
2022-12-17T08:06:38.459Z,102063.00
2022-12-17T08:09:23.920Z,102069.00
2022-12-17T08:12:09.231Z,102067.00
2022-12-17T08:14:54.698Z,102069.00
2022-12-17T08:17:40.110Z,102070.00
2022-12-17T08:20:26.130Z,102067.00
2022-12-17T08:23:11.605Z,102066.00
2022-12-17T08:25:56.847Z,102067.00
2022-12-17T08:28:51.198Z,102067.00
2022-12-17T08:31:37.550Z,102071.00
2022-12-17T08:34:23.159Z,102068.00
2022-12-17T08:37:10.127Z,102071.00
2022-12-17T08:39:55.594Z,102073.00
2022-12-17T08:42:41.648Z,102067.00
2022-12-17T08:45:27.440Z,102079.00
2022-12-17T08:48:19.745Z,102075.00
2022-12-17T08:51:12.765Z,102091.00
2022-12-17T08:53:58.238Z,102082.00
2022-12-17T08:56:44.238Z,102083.00
2022-12-17T08:59:29.655Z,102091.00
2022-12-17T09:02:15.437Z,102099.00
2022-12-17T09:05:00.636Z,102111.00
2022-12-17T09:07:46.117Z,102106.00
2022-12-17T09:10:31.529Z,102102.00
2022-12-17T09:13:21.380Z,102104.00
2022-12-17T09:16:14.066Z,102107.00
2022-12-17T09:19:00.481Z,102114.00
2022-12-17T09:21:48.150Z,102113.00
2022-12-17T09:24:33.940Z,102103.00
2022-12-17T09:27:19.293Z,102110.00
2022-12-17T09:30:05.927Z,102109.00
2022-12-17T09:32:51.223Z,102112.00
2022-12-17T09:35:36.643Z,102116.00
2022-12-17T09:38:21.933Z,102108.00
2022-12-17T09:41:09.872Z,102113.00
2022-12-17T09:44:25.052Z,102119.00
2022-12-17T09:47:19.786Z,102119.00
2022-12-17T09:50:05.827Z,102122.00
2022-12-17T09:52:57.113Z,102113.00
2022-12-17T09:56:05.366Z,102134.00
2022-12-17T09:58:55.699Z,102140.00
2022-12-17T10:01:52.273Z,102136.00
2022-12-17T10:05:03.009Z,102139.00
2022-12-17T10:07:55.344Z,102139.00
2022-12-17T10:10:50.366Z,102146.00
2022-12-17T10:13:40.440Z,102139.00
2022-12-17T10:16:44.017Z,102146.00
2022-12-17T10:19:54.806Z,102146.00
2022-12-17T10:22:41.349Z,102151.00
2022-12-17T10:25:41.788Z,102153.00
2022-12-17T10:28:38.588Z,102163.00
2022-12-17T10:31:41.953Z,102169.00
2022-12-17T10:34:38.001Z,102159.00
2022-12-17T10:37:24.911Z,102154.00
2022-12-17T10:40:16.605Z,102169.00
2022-12-17T10:43:03.776Z,102162.00
2022-12-17T10:45:53.437Z,102163.00
2022-12-17T10:48:45.299Z,102160.00
2022-12-17T10:51:55.137Z,102161.00
2022-12-17T10:54:50.069Z,102163.00
2022-12-17T10:57:57.123Z,102169.00
2022-12-17T11:00:51.215Z,102179.00
2022-12-17T11:03:54.769Z,102177.00
2022-12-17T11:06:56.113Z,102176.00
2022-12-17T11:10:08.946Z,102169.00
2022-12-17T11:13:17.646Z,102182.00
2022-12-17T11:16:33.655Z,102190.00
2022-12-17T11:19:27.636Z,102191.00
2022-12-17T11:22:20.178Z,102184.00
2022-12-17T11:25:24.845Z,102190.00
2022-12-17T11:28:29.591Z,102186.00
2022-12-17T11:32:01.565Z,102201.00
2022-12-17T11:35:17.999Z,102199.00
2022-12-17T11:38:36.190Z,102196.00
2022-12-17T11:41:43.436Z,102209.00
2022-12-17T11:45:07.287Z,102209.00
2022-12-17T11:48:35.598Z,102206.00
2022-12-17T11:51:33.997Z,102209.00
2022-12-17T11:54:26.885Z,102203.00
2022-12-17T11:57:46.061Z,102215.00
2022-12-17T12:00:40.053Z,102216.00
2022-12-17T12:03:55.250Z,102203.00
2022-12-17T12:07:03.096Z,102204.00
2022-12-17T12:10:04.571Z,102211.00
2022-12-17T12:13:18.771Z,102208.00
2022-12-17T12:16:51.718Z,102227.00
2022-12-17T12:19:58.246Z,102213.00
2022-12-17T12:23:03.875Z,102222.00
2022-12-17T12:26:16.817Z,102223.00
2022-12-17T12:29:36.038Z,102222.00
2022-12-17T12:32:49.921Z,102237.00
2022-12-17T12:35:43.415Z,102232.00
2022-12-17T12:38:46.148Z,102235.00
2022-12-17T12:41:50.287Z,102242.00
2022-12-17T12:45:14.153Z,102244.00
2022-12-17T12:48:17.518Z,102249.00
2022-12-17T12:51:33.701Z,102244.00
2022-12-17T12:54:49.622Z,102251.00
2022-12-17T12:57:51.870Z,102264.00
2022-12-17T13:01:08.775Z,102266.00
2022-12-17T13:04:02.895Z,102279.00
2022-12-17T13:06:56.873Z,102272.00
2022-12-17T13:09:35.175Z,102261.00
2022-12-17T13:12:04.807Z,102270.00
2022-12-17T13:15:06.281Z,102267.00
2022-12-17T13:17:44.066Z,102270.00
2022-12-17T13:20:31.563Z,102266.00
2022-12-17T13:23:27.832Z,102269.00
2022-12-17T13:26:23.421Z,102269.00
2022-12-17T13:29:12.094Z,102267.00
2022-12-17T13:32:01.369Z,102273.00
2022-12-17T13:34:48.942Z,102273.00
2022-12-17T13:37:46.205Z,102274.00
2022-12-17T13:40:37.558Z,102285.00
2022-12-17T13:43:05.711Z,102283.00
2022-12-17T13:45:38.653Z,102283.00
2022-12-17T13:48:05.749Z,102287.00
2022-12-17T13:50:34.396Z,102293.00
2022-12-17T13:53:15.371Z,102289.00
2022-12-17T13:55:50.304Z,102296.00
2022-12-17T13:58:27.999Z,102308.00
2022-12-17T14:01:15.424Z,102312.00
2022-12-17T14:04:09.416Z,102320.00
2022-12-17T14:06:38.556Z,102319.00
2022-12-17T14:09:06.203Z,102323.00
2022-12-17T14:11:55.496Z,102320.00
2022-12-17T14:14:36.911Z,102316.00
2022-12-17T14:17:04.433Z,102324.00
2022-12-17T14:19:33.580Z,102337.00
2022-12-17T14:22:01.420Z,102339.00
2022-12-17T14:24:29.527Z,102338.00
2022-12-17T14:26:59.948Z,102335.00
2022-12-17T14:29:32.482Z,102328.00
2022-12-17T14:32:03.921Z,102339.00
2022-12-17T14:34:42.343Z,102332.00
2022-12-17T14:37:19.722Z,102333.00
2022-12-17T14:39:48.903Z,102330.00
2022-12-17T14:42:29.327Z,102340.00
2022-12-17T14:45:03.031Z,102344.00
2022-12-17T14:47:33.724Z,102351.00
2022-12-17T14:50:12.487Z,102349.00
2022-12-17T14:52:46.346Z,102354.00
2022-12-17T14:55:22.388Z,102362.00
2022-12-17T14:57:50.928Z,102368.00
2022-12-17T15:00:18.675Z,102369.00
2022-12-17T15:02:54.333Z,102368.00
2022-12-17T15:05:21.361Z,102359.00
2022-12-17T15:07:48.258Z,102362.00
2022-12-17T15:10:20.798Z,102358.00
2022-12-17T15:12:51.295Z,102368.00
2022-12-17T15:15:18.043Z,102372.00
2022-12-17T15:17:45.034Z,102371.00
2022-12-17T15:20:21.008Z,102378.00
2022-12-17T15:22:48.279Z,102372.00
2022-12-17T15:25:19.019Z,102382.00
2022-12-17T15:27:46.536Z,102385.00
2022-12-17T15:30:16.775Z,102394.00
2022-12-17T15:32:45.272Z,102393.00
2022-12-17T15:35:13.478Z,102396.00
2022-12-17T15:37:40.313Z,102400.00
2022-12-17T15:40:10.681Z,102401.00
2022-12-17T15:42:57.446Z,102406.00
2022-12-17T15:45:25.866Z,102404.00
2022-12-17T15:47:52.591Z,102409.00
2022-12-17T15:50:20.696Z,102407.00
2022-12-17T15:52:47.553Z,102416.00
2022-12-17T15:55:15.245Z,102414.00
2022-12-17T15:57:42.483Z,102411.00
2022-12-17T16:00:10.649Z,102412.00
2022-12-17T16:02:37.650Z,102418.00
2022-12-17T16:05:05.559Z,102422.00
2022-12-17T16:07:32.261Z,102422.00
2022-12-17T16:10:04.589Z,102425.00
2022-12-17T16:12:32.410Z,102418.00
2022-12-17T16:14:59.296Z,102426.00
2022-12-17T16:17:26.011Z,102422.00
2022-12-17T16:19:52.739Z,102423.00
2022-12-17T16:22:19.514Z,102422.00
2022-12-17T16:24:46.343Z,102419.00
2022-12-17T16:27:14.463Z,102421.00
2022-12-17T16:29:41.285Z,102427.00
2022-12-17T16:32:07.984Z,102427.00
2022-12-17T16:34:34.720Z,102426.00
2022-12-17T16:37:01.621Z,102429.00
2022-12-17T16:39:28.739Z,102435.00
2022-12-17T16:41:55.500Z,102434.00
2022-12-17T16:44:22.230Z,102441.00
2022-12-17T16:46:49.087Z,102442.00
2022-12-17T16:49:19.916Z,102450.00
2022-12-17T16:51:53.962Z,102450.00
2022-12-17T16:54:28.972Z,102455.00
2022-12-17T16:56:55.788Z,102451.00
2022-12-17T16:59:23.563Z,102457.00
2022-12-17T17:01:52.223Z,102451.00
2022-12-17T17:04:23.071Z,102448.00
2022-12-17T17:06:53.904Z,102450.00
2022-12-17T17:09:21.923Z,102452.00
2022-12-17T17:11:51.717Z,102454.00
2022-12-17T17:14:19.267Z,102452.00
2022-12-17T17:16:46.171Z,102459.00
2022-12-17T17:19:12.919Z,102441.00
2022-12-17T17:21:47.563Z,102451.00
2022-12-17T17:24:21.182Z,102460.00
2022-12-17T17:26:49.403Z,102459.00
2022-12-17T17:29:16.287Z,102461.00
2022-12-17T17:34:30.045Z,102465.00
2022-12-17T17:36:56.844Z,102473.00
2022-12-17T17:39:23.613Z,102472.00
2022-12-17T17:41:50.423Z,102477.00
2022-12-17T17:44:17.148Z,102484.00
2022-12-17T17:46:43.989Z,102481.00
2022-12-17T17:49:11.936Z,102484.00
2022-12-17T17:54:29.044Z,102490.00
2022-12-17T17:56:55.886Z,102487.00
2022-12-17T17:59:27.782Z,102488.00
2022-12-17T18:02:00.305Z,102489.00
2022-12-17T18:04:27.309Z,102487.00
2022-12-17T18:07:23.662Z,102498.00
2022-12-17T18:09:40.749Z,102492.00
2022-12-17T18:12:25.864Z,102499.00
2022-12-17T18:15:13.192Z,102493.00
2022-12-17T18:17:39.860Z,102506.00
2022-12-17T18:20:07.276Z,102502.00
2022-12-17T18:22:33.998Z,102509.00
2022-12-17T18:25:00.825Z,102514.00
2022-12-17T18:27:27.602Z,102499.00
2022-12-17T18:29:54.331Z,102513.00
2022-12-17T18:32:21.048Z,102513.00
2022-12-17T18:34:47.829Z,102498.00
2022-12-17T18:37:14.623Z,102520.00
2022-12-17T18:39:41.375Z,102511.00
2022-12-17T18:42:27.742Z,102504.00
2022-12-17T18:44:54.495Z,102520.00
2022-12-17T18:47:21.402Z,102516.00
2022-12-17T18:49:48.397Z,102519.00
2022-12-17T18:52:17.362Z,102527.00
2022-12-17T18:54:45.335Z,102531.00
2022-12-17T18:57:13.796Z,102541.00
2022-12-17T18:59:41.256Z,102535.00
2022-12-17T19:02:15.397Z,102534.00
2022-12-17T19:04:42.898Z,102538.00
2022-12-17T19:07:10.146Z,102550.00
2022-12-17T19:09:39.399Z,102553.00
2022-12-17T19:12:09.669Z,102560.00
2022-12-17T19:14:37.746Z,102562.00
2022-12-17T19:17:05.872Z,102568.00
2022-12-17T19:19:33.872Z,102563.00
2022-12-17T19:22:00.871Z,102565.00
2022-12-17T19:24:28.051Z,102555.00
2022-12-17T19:26:55.482Z,102565.00
2022-12-17T19:29:22.692Z,102563.00
2022-12-17T19:31:49.544Z,102575.00
2022-12-17T19:34:19.027Z,102565.00
2022-12-17T19:36:47.143Z,102579.00
2022-12-17T19:39:18.425Z,102569.00
2022-12-17T19:41:45.697Z,102576.00
2022-12-17T19:44:16.143Z,102575.00
2022-12-17T19:46:43.828Z,102576.00
2022-12-17T19:49:13.425Z,102588.00
2022-12-17T19:51:43.016Z,102588.00
2022-12-17T19:54:15.120Z,102599.00
2022-12-17T19:56:45.122Z,102605.00
2022-12-17T19:59:13.080Z,102595.00
2022-12-17T20:01:46.378Z,102586.00
2022-12-17T20:04:16.204Z,102593.00
2022-12-17T20:06:43.950Z,102599.00
2022-12-17T20:09:11.084Z,102594.00
2022-12-17T20:11:38.429Z,102595.00
2022-12-17T20:14:18.605Z,102598.00
2022-12-17T20:16:53.183Z,102615.00
2022-12-17T20:19:30.980Z,102616.00
2022-12-17T20:22:04.465Z,102616.00
2022-12-17T20:24:32.233Z,102628.00
2022-12-17T20:27:00.587Z,102622.00
2022-12-17T20:29:27.696Z,102620.00
2022-12-17T20:31:55.767Z,102627.00
2022-12-17T20:34:23.260Z,102625.00
2022-12-17T20:36:51.793Z,102626.00
2022-12-17T20:39:23.282Z,102627.00
2022-12-17T20:41:53.202Z,102630.00
2022-12-17T20:44:19.940Z,102630.00
2022-12-17T20:46:46.676Z,102638.00
2022-12-17T20:49:14.632Z,102631.00
2022-12-17T20:51:41.606Z,102638.00
2022-12-17T20:54:10.303Z,102635.00
2022-12-17T20:56:38.609Z,102628.00
2022-12-17T20:59:09.249Z,102635.00
2022-12-17T21:01:37.373Z,102649.00
2022-12-17T21:04:07.392Z,102634.00
2022-12-17T21:06:41.116Z,102648.00
2022-12-17T21:09:08.889Z,102651.00
2022-12-17T21:11:38.771Z,102642.00
2022-12-17T21:14:09.356Z,102641.00
2022-12-17T21:16:38.245Z,102643.00
2022-12-17T21:19:06.953Z,102642.00
2022-12-17T21:21:37.855Z,102651.00
2022-12-17T21:24:06.296Z,102644.00
2022-12-17T21:26:37.414Z,102648.00
2022-12-17T21:29:06.609Z,102651.00
2022-12-17T21:31:40.627Z,102664.00
2022-12-17T21:34:12.971Z,102673.00
2022-12-17T21:36:40.726Z,102660.00
2022-12-17T21:39:09.811Z,102661.00
2022-12-17T21:41:44.674Z,102670.00
2022-12-17T21:44:13.551Z,102660.00
2022-12-17T21:46:41.952Z,102667.00
2022-12-17T21:49:09.873Z,102664.00
2022-12-17T21:51:36.867Z,102676.00
2022-12-17T21:54:08.584Z,102671.00
2022-12-17T21:56:36.350Z,102676.00
2022-12-17T21:59:03.540Z,102671.00
2022-12-17T22:01:34.517Z,102667.00
2022-12-17T22:04:04.271Z,102678.00
2022-12-17T22:06:48.745Z,102693.00
2022-12-17T22:09:33.331Z,102687.00
2022-12-17T22:12:31.415Z,102683.00
2022-12-17T22:14:58.131Z,102693.00
2022-12-17T22:17:25.526Z,102685.00
2022-12-17T22:19:52.251Z,102687.00
2022-12-17T22:22:18.974Z,102690.00
2022-12-17T22:24:46.306Z,102695.00
2022-12-17T22:27:13.123Z,102699.00
2022-12-17T22:29:58.497Z,102704.00
2022-12-17T22:32:43.821Z,102699.00
2022-12-17T22:36:21.317Z,102715.00
2022-12-17T22:40:02.305Z,102707.00
2022-12-17T22:44:29.672Z,102710.00
2022-12-17T22:44:44.814Z,102723.00
2022-12-17T22:46:19.302Z,102717.00
2022-12-17T22:48:46.833Z,102719.00
2022-12-17T22:51:18.114Z,102722.00
2022-12-17T22:53:52.982Z,102732.00
2022-12-17T22:56:40.905Z,102731.00
2022-12-17T22:59:09.545Z,102737.00
2022-12-17T23:01:36.287Z,102734.00
2022-12-17T23:04:03.867Z,102738.00
2022-12-17T23:06:30.724Z,102733.00
2022-12-17T23:08:58.912Z,102745.00
2022-12-17T23:11:28.047Z,102742.00
2022-12-17T23:13:55.406Z,102737.00
2022-12-17T23:16:22.645Z,102741.00
2022-12-17T23:18:51.307Z,102747.00
2022-12-17T23:21:26.049Z,102747.00
2022-12-17T23:23:55.512Z,102742.00
2022-12-17T23:26:35.046Z,102739.00
2022-12-17T23:29:09.000Z,102751.00
2022-12-17T23:31:40.065Z,102752.00
2022-12-17T23:34:07.900Z,102750.00
2022-12-17T23:36:36.137Z,102750.00
2022-12-17T23:39:03.660Z,102745.00
2022-12-17T23:41:31.271Z,102747.00
2022-12-17T23:43:59.609Z,102742.00
2022-12-17T23:46:29.573Z,102742.00
2022-12-17T23:48:56.587Z,102744.00
2022-12-17T23:51:25.087Z,102740.00
2022-12-17T23:53:52.371Z,102747.00
2022-12-17T23:56:26.277Z,102751.00
2022-12-17T23:58:56.781Z,102749.00
